createdAt,value
2022-09-12T00:00:26.473Z,11.40
2022-09-12T00:02:57.545Z,11.30
2022-09-12T00:05:28.876Z,11.40
2022-09-12T00:07:58.839Z,11.40
2022-09-12T00:10:29.172Z,11.40
2022-09-12T00:13:01.705Z,11.30
2022-09-12T00:15:31.638Z,11.30
2022-09-12T00:18:01.598Z,11.40
2022-09-12T00:20:31.626Z,11.20
2022-09-12T00:23:01.604Z,11.20
2022-09-12T00:25:32.188Z,11.20
2022-09-12T00:28:05.487Z,11.30
2022-09-12T00:30:35.437Z,11.30
2022-09-12T00:33:05.394Z,11.30
2022-09-12T00:35:35.419Z,11.20
2022-09-12T00:38:05.350Z,11.20
2022-09-12T00:40:35.334Z,11.30
2022-09-12T00:43:08.037Z,11.10
2022-09-12T00:45:38.530Z,11.00
2022-09-12T00:48:09.099Z,11.00
2022-09-12T00:50:39.088Z,11.00
2022-09-12T00:53:12.485Z,11.00
2022-09-12T00:55:46.602Z,10.80
2022-09-12T00:58:24.690Z,10.80
2022-09-12T01:00:55.271Z,10.90
2022-09-12T01:03:27.753Z,10.90
2022-09-12T01:06:11.577Z,10.80
2022-09-12T01:08:43.696Z,10.90
2022-09-12T01:11:15.691Z,10.90
2022-09-12T01:13:49.385Z,10.80
2022-09-12T01:16:20.175Z,10.70
2022-09-12T01:19:15.024Z,10.80
2022-09-12T01:22:01.983Z,10.70
2022-09-12T01:24:56.648Z,10.50
2022-09-12T01:27:53.601Z,10.60
2022-09-12T01:30:52.291Z,10.50
2022-09-12T01:33:42.695Z,10.70
2022-09-12T01:36:46.193Z,10.70
2022-09-12T01:39:32.893Z,10.70
2022-09-12T01:42:17.991Z,10.60
2022-09-12T01:44:57.640Z,10.60
2022-09-12T01:47:43.271Z,10.60
2022-09-12T01:50:21.344Z,10.50
2022-09-12T01:52:59.707Z,10.40
2022-09-12T01:55:37.097Z,10.50
2022-09-12T01:58:14.983Z,10.50
2022-09-12T02:00:55.791Z,10.60
2022-09-12T02:03:34.600Z,10.60
2022-09-12T02:06:14.073Z,10.30
2022-09-12T02:08:53.414Z,10.30
2022-09-12T02:11:24.273Z,10.40
2022-09-12T02:14:01.827Z,10.30
2022-09-12T02:16:40.184Z,10.30
2022-09-12T02:19:19.123Z,10.20
2022-09-12T02:21:54.772Z,10.20
2022-09-12T02:24:32.539Z,10.20
2022-09-12T02:27:13.436Z,10.30
2022-09-12T02:29:44.788Z,10.20
2022-09-12T02:32:27.007Z,10.10
2022-09-12T02:35:08.545Z,10.20
2022-09-12T02:37:59.731Z,10.10
2022-09-12T02:40:30.548Z,10.00
2022-09-12T02:43:02.299Z,10.00
2022-09-12T02:45:34.416Z,10.20
2022-09-12T02:48:13.448Z,10.20
2022-09-12T02:50:47.509Z,10.10
2022-09-12T02:53:18.520Z,10.00
2022-09-12T02:55:48.912Z,10.00
2022-09-12T02:58:24.869Z,10.00
2022-09-12T03:01:10.285Z,10.00
2022-09-12T03:04:02.805Z,9.90
2022-09-12T03:06:51.602Z,10.00
2022-09-12T03:09:33.787Z,10.00
2022-09-12T03:12:21.867Z,10.00
2022-09-12T03:15:20.417Z,10.00
2022-09-12T03:18:11.060Z,10.00
2022-09-12T03:20:53.427Z,10.00
2022-09-12T03:23:34.619Z,9.90
2022-09-12T03:26:13.685Z,9.80
2022-09-12T03:28:46.406Z,9.90
2022-09-12T03:31:18.346Z,9.90
2022-09-12T03:33:48.918Z,9.80
2022-09-12T03:36:24.357Z,9.80
2022-09-12T03:38:57.491Z,9.80
2022-09-12T03:41:27.647Z,9.90
2022-09-12T03:43:57.573Z,10.00
2022-09-12T03:46:27.684Z,9.90
2022-09-12T03:48:57.620Z,9.90
2022-09-12T03:51:27.700Z,9.80
2022-09-12T03:54:00.290Z,9.80
2022-09-12T03:56:30.615Z,9.80
2022-09-12T03:59:00.876Z,9.70
2022-09-12T04:01:30.967Z,9.60
2022-09-12T04:04:00.925Z,9.40
2022-09-12T04:06:31.308Z,9.40
2022-09-12T04:09:03.869Z,9.40
2022-09-12T04:11:35.881Z,9.50
2022-09-12T04:14:05.844Z,9.50
2022-09-12T04:16:36.087Z,9.40
2022-09-12T04:19:06.681Z,9.40
2022-09-12T04:21:36.644Z,9.30
2022-09-12T04:24:09.470Z,9.30
2022-09-12T04:26:39.424Z,9.30
2022-09-12T04:29:10.987Z,9.30
2022-09-12T04:31:41.921Z,9.30
2022-09-12T04:34:12.736Z,9.20
2022-09-12T04:36:42.742Z,9.30
2022-09-12T04:39:17.032Z,9.30
2022-09-12T04:41:46.945Z,9.20
2022-09-12T04:44:18.327Z,9.20
2022-09-12T04:46:50.278Z,9.20
2022-09-12T04:49:20.269Z,9.20
2022-09-12T04:51:50.473Z,9.30
2022-09-12T04:54:23.203Z,9.10
2022-09-12T04:56:54.951Z,9.10
2022-09-12T04:59:26.606Z,9.10
2022-09-12T05:01:56.598Z,9.30
2022-09-12T05:04:26.662Z,9.30
2022-09-12T05:06:56.737Z,9.40
2022-09-12T05:09:29.577Z,9.30
2022-09-12T05:12:04.548Z,9.40
2022-09-12T05:14:36.856Z,9.40
2022-09-12T05:17:08.216Z,9.50
2022-09-12T05:19:38.471Z,9.50
2022-09-12T05:22:09.817Z,9.50
2022-09-12T05:24:47.240Z,9.50
2022-09-12T05:27:20.201Z,9.80
2022-09-12T05:29:50.172Z,10.20
2022-09-12T05:32:20.811Z,10.40
2022-09-12T05:34:50.978Z,10.90
2022-09-12T05:37:21.143Z,11.20
2022-09-12T05:39:53.864Z,11.20
2022-09-12T05:42:23.911Z,11.20
2022-09-12T05:44:54.093Z,11.10
2022-09-12T05:47:24.074Z,11.70
2022-09-12T05:49:54.381Z,12.00
2022-09-12T05:52:24.385Z,12.10
2022-09-12T05:54:56.909Z,11.80
2022-09-12T05:57:26.934Z,11.60
2022-09-12T05:59:56.890Z,11.40
2022-09-12T06:02:26.928Z,11.70
2022-09-12T06:04:56.966Z,12.50
2022-09-12T06:09:59.854Z,13.80
2022-09-12T06:12:31.794Z,14.70
2022-09-12T06:15:01.780Z,15.60
2022-09-12T06:17:31.754Z,16.10
2022-09-12T06:20:01.930Z,16.00
2022-09-12T06:22:31.957Z,15.60
2022-09-12T06:25:05.140Z,15.00
2022-09-12T06:27:35.133Z,14.60
2022-09-12T06:30:05.280Z,14.60
2022-09-12T06:32:35.831Z,14.50
2022-09-12T06:35:06.141Z,14.70
2022-09-12T06:37:36.126Z,15.20
2022-09-12T06:40:11.223Z,16.20
2022-09-12T06:42:41.304Z,17.30
2022-09-12T06:45:16.581Z,17.90
2022-09-12T06:47:46.581Z,18.50
2022-09-12T06:50:16.834Z,19.20
2022-09-12T06:52:47.306Z,19.90
2022-09-12T06:55:23.517Z,19.50
2022-09-12T06:57:58.107Z,19.70
2022-09-12T07:00:28.228Z,20.40
2022-09-12T07:02:59.140Z,20.80
2022-09-12T07:05:29.101Z,21.30
2022-09-12T07:07:59.339Z,21.50
2022-09-12T07:10:32.164Z,21.90
2022-09-12T07:13:02.109Z,22.30
2022-09-12T07:15:32.082Z,22.60
2022-09-12T07:18:02.197Z,22.50
2022-09-12T07:20:33.221Z,22.40
2022-09-12T07:23:03.209Z,22.50
2022-09-12T07:25:35.762Z,22.70
2022-09-12T07:28:06.329Z,22.90
2022-09-12T07:30:36.333Z,23.10
2022-09-12T07:33:06.844Z,23.40
2022-09-12T07:35:37.264Z,24.20
2022-09-12T07:38:07.675Z,24.80
2022-09-12T07:40:40.725Z,25.20
2022-09-12T07:43:10.704Z,25.50
2022-09-12T07:45:42.379Z,26.00
2022-09-12T07:48:12.792Z,26.80
2022-09-12T07:50:45.154Z,27.40
2022-09-12T07:53:15.285Z,27.60
2022-09-12T07:55:55.180Z,27.90
2022-09-12T07:58:25.315Z,28.40
2022-09-12T08:00:55.666Z,28.70
2022-09-12T08:03:25.644Z,29.30
2022-09-12T08:05:55.602Z,29.50
2022-09-12T08:08:25.605Z,29.40
2022-09-12T08:11:03.141Z,29.70
2022-09-12T08:13:33.401Z,29.90
2022-09-12T08:16:05.990Z,29.60
2022-09-12T08:18:38.450Z,30.00
2022-09-12T08:21:14.716Z,30.00
2022-09-12T08:23:45.300Z,29.70
2022-09-12T08:26:17.956Z,29.40
2022-09-12T08:28:49.209Z,30.10
2022-09-12T08:52:53.240Z,35.00
2022-09-12T08:55:37.665Z,35.00
2022-09-12T08:58:17.980Z,35.40
2022-09-12T09:01:03.911Z,35.80
2022-09-12T09:04:07.549Z,36.10
2022-09-12T09:07:10.424Z,36.20
2022-09-12T09:09:59.222Z,36.60
2022-09-12T09:12:40.833Z,36.90
2022-09-12T09:15:48.694Z,37.40
2022-09-12T09:18:28.863Z,37.30
2022-09-12T09:21:04.368Z,37.40
2022-09-12T09:23:39.686Z,37.70
2022-09-12T09:26:18.100Z,38.10
2022-09-12T09:28:53.861Z,38.20
2022-09-12T09:31:33.624Z,38.20
2022-09-12T09:34:04.229Z,38.80
2022-09-12T09:36:49.802Z,38.80
2022-09-12T09:39:38.876Z,38.30
2022-09-12T09:42:25.307Z,38.60
2022-09-12T09:45:01.312Z,39.30
2022-09-12T09:47:34.012Z,39.10
2022-09-12T09:50:04.017Z,38.30
2022-09-12T09:52:34.231Z,38.40
2022-09-12T09:55:05.294Z,37.20
2022-09-12T09:57:47.868Z,38.00
2022-09-12T10:00:32.647Z,38.90
2022-09-12T10:03:31.133Z,39.60
2022-09-12T10:06:05.291Z,40.60
2022-09-12T10:08:38.608Z,40.60
2022-09-12T10:11:22.786Z,38.70
2022-09-12T10:14:00.706Z,37.60
2022-09-12T10:16:33.946Z,37.40
2022-09-12T10:19:07.244Z,36.60
2022-09-12T10:21:42.810Z,36.70
2022-09-12T10:24:26.977Z,37.70
2022-09-12T10:27:01.208Z,37.40
2022-09-12T10:29:36.316Z,37.40
2022-09-12T10:32:12.790Z,38.10
2022-09-12T10:34:48.465Z,37.50
2022-09-12T10:37:27.878Z,36.90
2022-09-12T10:40:01.466Z,36.70
2022-09-12T10:42:52.616Z,36.50
2022-09-12T10:45:26.890Z,36.20
2022-09-12T10:47:58.981Z,35.80
2022-09-12T10:50:34.777Z,35.50
2022-09-12T10:53:22.433Z,34.80
2022-09-12T10:56:09.567Z,34.50
2022-09-12T10:59:20.062Z,33.30
2022-09-12T11:01:58.522Z,32.30
2022-09-12T11:04:45.344Z,32.10
2022-09-12T11:07:42.216Z,32.60
2022-09-12T11:10:37.362Z,31.80
2022-09-12T11:13:32.752Z,30.80
2022-09-12T11:16:21.821Z,29.90
2022-09-12T11:19:17.579Z,30.20
2022-09-12T11:22:07.499Z,31.30
2022-09-12T11:25:26.544Z,32.90
2022-09-12T11:41:53.838Z,34.50
2022-09-12T11:44:31.330Z,34.00
2022-09-12T11:47:03.272Z,34.40
2022-09-12T11:49:43.355Z,34.90
2022-09-12T11:52:19.964Z,35.40
2022-09-12T11:55:00.272Z,36.50
2022-09-12T11:57:43.502Z,37.10
2022-09-12T12:00:22.253Z,36.90
2022-09-12T12:03:05.876Z,36.50
2022-09-12T12:05:47.531Z,36.80
2022-09-12T12:08:18.672Z,36.50
2022-09-12T12:10:56.938Z,35.10
2022-09-12T12:13:38.658Z,35.10
2022-09-12T12:16:15.480Z,35.40
2022-09-12T12:18:47.003Z,34.10
2022-09-12T12:21:37.645Z,33.40
2022-09-12T12:24:19.297Z,33.80
2022-09-12T12:27:03.463Z,34.70
2022-09-12T12:29:46.924Z,35.10
2022-09-12T12:32:37.855Z,35.40
2022-09-12T12:35:41.622Z,35.60
2022-09-12T12:38:31.723Z,34.20
2022-09-12T12:41:47.383Z,31.40
2022-09-12T12:44:54.029Z,29.90
2022-09-12T12:47:28.592Z,28.40
2022-09-12T12:50:02.946Z,26.90
2022-09-12T12:52:36.952Z,26.30
2022-09-12T12:55:09.820Z,25.50
2022-09-12T12:57:52.762Z,25.30
2022-09-12T13:00:36.955Z,25.30
2022-09-12T13:03:30.282Z,25.20
2022-09-12T13:06:07.296Z,25.30
2022-09-12T13:08:41.839Z,25.40
2022-09-12T13:11:18.828Z,26.40
2022-09-12T13:13:55.978Z,28.10
2022-09-12T13:16:43.065Z,30.40
2022-09-12T13:19:22.556Z,32.00
2022-09-12T13:21:59.432Z,32.30
2022-09-12T13:24:29.514Z,34.60
2022-09-12T13:27:00.334Z,36.30
2022-09-12T13:29:31.923Z,37.30
2022-09-12T13:32:07.045Z,36.60
2022-09-12T13:34:48.802Z,36.70
2022-09-12T13:37:50.859Z,35.80
2022-09-12T13:40:39.727Z,35.60
2022-09-12T13:43:17.961Z,34.10
2022-09-12T13:45:50.809Z,34.70
2022-09-12T13:48:28.032Z,35.70
2022-09-12T13:51:02.478Z,35.70
2022-09-12T13:53:44.949Z,35.50
2022-09-12T13:56:20.689Z,35.40
2022-09-12T13:59:00.344Z,35.30
2022-09-12T14:01:42.881Z,34.70
2022-09-12T14:04:35.090Z,33.70
2022-09-12T14:07:14.538Z,34.00
2022-09-12T14:09:49.219Z,35.10
2022-09-12T14:12:30.352Z,35.30
2022-09-12T14:15:01.237Z,34.60
2022-09-12T14:17:39.029Z,35.90
2022-09-12T14:20:19.904Z,35.30
2022-09-12T14:22:51.280Z,33.70
2022-09-12T14:25:25.552Z,31.50
2022-09-12T14:27:58.665Z,29.40
2022-09-12T14:30:32.045Z,28.10
2022-09-12T14:33:23.749Z,27.30
2022-09-12T14:36:19.721Z,27.00
2022-09-12T14:38:53.912Z,26.70
2022-09-12T14:41:33.238Z,26.00
2022-09-12T14:44:08.278Z,25.70
2022-09-12T14:46:41.478Z,25.40
2022-09-12T14:49:19.372Z,25.20
2022-09-12T14:52:01.597Z,24.90
2022-09-12T14:54:42.608Z,24.60
2022-09-12T14:57:39.445Z,24.70
2022-09-12T15:00:23.096Z,25.10
2022-09-12T15:02:55.061Z,26.00
2022-09-12T15:05:29.559Z,26.60
2022-09-12T15:08:04.380Z,26.60
2022-09-12T15:10:38.301Z,26.30
2022-09-12T15:13:25.931Z,26.50
2022-09-12T15:15:58.931Z,26.50
2022-09-12T15:18:31.926Z,26.30
2022-09-12T15:21:08.643Z,25.70
2022-09-12T15:23:47.569Z,25.60
2022-09-12T15:26:20.895Z,25.50
2022-09-12T15:28:51.293Z,25.20
2022-09-12T15:31:28.660Z,25.10
2022-09-12T15:34:01.186Z,25.00
2022-09-12T15:36:32.309Z,24.60
2022-09-12T15:39:04.899Z,24.60
2022-09-12T15:41:37.689Z,24.60
2022-09-12T15:44:08.872Z,24.60
2022-09-12T15:46:39.082Z,24.60
2022-09-12T15:49:09.401Z,24.40
2022-09-12T15:51:40.162Z,24.30
2022-09-12T15:54:16.865Z,24.10
2022-09-12T15:56:46.994Z,24.10
2022-09-12T15:59:16.976Z,24.20
2022-09-12T16:01:47.285Z,24.10
2022-09-12T16:04:25.571Z,23.90
2022-09-12T16:06:57.610Z,23.90
2022-09-12T16:09:30.158Z,23.90
2022-09-12T16:12:00.119Z,24.00
2022-09-12T16:14:30.178Z,23.90
2022-09-12T16:17:00.302Z,23.90
2022-09-12T16:19:30.329Z,23.90
2022-09-12T16:22:00.349Z,24.00
2022-09-12T16:24:33.094Z,23.80
2022-09-12T16:27:03.097Z,23.70
2022-09-12T16:29:33.209Z,23.60
2022-09-12T16:32:03.232Z,23.50
2022-09-12T16:34:33.525Z,23.40
2022-09-12T16:37:03.823Z,23.40
2022-09-12T16:39:37.009Z,23.30
2022-09-12T16:42:07.697Z,23.20
2022-09-12T16:44:37.673Z,23.30
2022-09-12T16:47:08.057Z,23.20
2022-09-12T16:49:38.339Z,23.10
2022-09-12T16:52:08.835Z,23.00
2022-09-12T16:54:41.557Z,23.00
2022-09-12T16:57:11.541Z,23.00
2022-09-12T16:59:41.670Z,22.90
2022-09-12T17:02:16.028Z,22.80
2022-09-12T17:04:46.015Z,22.80
2022-09-12T17:07:16.064Z,22.80
2022-09-12T17:09:48.873Z,22.70
2022-09-12T17:12:18.918Z,22.60
2022-09-12T17:14:48.923Z,22.40
2022-09-12T17:17:18.910Z,22.30
2022-09-12T17:19:48.898Z,22.20
2022-09-12T17:22:19.014Z,22.10
2022-09-12T17:24:51.671Z,21.80
2022-09-12T17:27:21.811Z,21.70
2022-09-12T17:29:51.852Z,21.80
2022-09-12T17:32:21.921Z,21.60
2022-09-12T17:34:51.977Z,21.50
2022-09-12T17:37:22.071Z,21.50
2022-09-12T17:39:54.727Z,21.40
2022-09-12T17:42:24.956Z,21.30
2022-09-12T17:44:55.435Z,21.20
2022-09-12T17:47:25.713Z,20.90
2022-09-12T17:50:09.199Z,20.80
2022-09-12T17:52:46.059Z,20.70
2022-09-12T17:55:18.993Z,20.60
2022-09-12T17:57:49.156Z,20.40
2022-09-12T18:00:40.061Z,20.30
2022-09-12T18:03:07.846Z,20.10
2022-09-12T18:05:37.890Z,20.20
2022-09-12T18:08:07.915Z,20.10
2022-09-12T18:10:40.461Z,20.00
2022-09-12T18:13:11.075Z,19.80
2022-09-12T18:15:41.200Z,19.60
2022-09-12T18:18:11.617Z,19.40
2022-09-12T18:20:41.634Z,19.20
2022-09-12T18:23:11.610Z,19.00
2022-09-12T18:25:44.197Z,18.80
2022-09-12T18:28:14.559Z,18.60
2022-09-12T18:30:45.046Z,18.40
2022-09-12T18:33:15.315Z,18.20
2022-09-12T18:35:45.301Z,18.10
2022-09-12T18:38:15.294Z,18.10
2022-09-12T18:40:47.939Z,18.00
2022-09-12T18:43:17.893Z,18.10
2022-09-12T18:45:47.854Z,18.10
2022-09-12T18:48:17.869Z,18.10
2022-09-12T18:50:47.906Z,18.20
2022-09-12T18:53:17.928Z,18.10
2022-09-12T18:55:50.547Z,18.10
2022-09-12T18:58:20.505Z,18.00
2022-09-12T19:00:50.551Z,17.90
2022-09-12T19:03:20.595Z,17.80
2022-09-12T19:05:50.584Z,17.60
2022-09-12T19:08:20.893Z,17.50
2022-09-12T19:11:00.609Z,17.40
2022-09-12T19:13:30.656Z,17.40
2022-09-12T19:16:02.987Z,17.50
2022-09-12T19:18:34.061Z,17.70
2022-09-12T19:21:04.333Z,17.80
2022-09-12T19:23:35.999Z,17.70
2022-09-12T19:26:12.738Z,17.50
2022-09-12T19:28:43.322Z,17.20
2022-09-12T19:31:16.723Z,17.00
2022-09-12T19:33:46.733Z,17.00
2022-09-12T19:36:41.217Z,16.90
2022-09-12T19:39:10.320Z,16.90
2022-09-12T19:41:42.915Z,16.90
2022-09-12T19:44:13.106Z,16.80
2022-09-12T19:46:43.548Z,16.90
2022-09-12T19:49:15.241Z,17.00
2022-09-12T19:51:45.235Z,17.00
2022-09-12T19:54:15.195Z,16.90
2022-09-12T19:56:47.973Z,17.00
2022-09-12T19:59:17.982Z,17.20
2022-09-12T20:01:48.117Z,17.30
2022-09-12T20:04:18.389Z,17.20
2022-09-12T20:06:48.349Z,17.10
2022-09-12T20:09:18.326Z,17.10
2022-09-12T20:11:50.957Z,17.10
2022-09-12T20:14:21.348Z,17.00
2022-09-12T20:16:51.621Z,17.00
2022-09-12T20:19:21.808Z,16.80
2022-09-12T20:21:51.983Z,16.70
2022-09-12T20:24:21.958Z,16.60
2022-09-12T20:26:57.488Z,16.60
2022-09-12T20:29:27.917Z,16.60
2022-09-12T20:31:57.928Z,16.50
2022-09-12T20:34:28.018Z,16.50
2022-09-12T20:36:57.975Z,16.60
2022-09-12T20:39:28.434Z,16.60
2022-09-12T20:42:00.960Z,16.50
2022-09-12T20:44:31.042Z,16.40
2022-09-12T20:47:01.050Z,16.40
2022-09-12T20:49:31.150Z,16.40
2022-09-12T20:52:01.132Z,16.20
2022-09-12T20:54:31.194Z,16.30
2022-09-12T20:57:03.825Z,16.30
2022-09-12T20:59:35.430Z,16.30
2022-09-12T21:02:05.485Z,16.30
2022-09-12T21:04:35.605Z,16.30
2022-09-12T21:07:05.600Z,16.30
2022-09-12T21:09:35.628Z,16.30
2022-09-12T21:12:08.538Z,16.30
2022-09-12T21:14:38.521Z,16.20
2022-09-12T21:17:08.665Z,16.10
2022-09-12T21:19:38.705Z,16.10
2022-09-12T21:22:08.730Z,16.00
2022-09-12T21:24:38.754Z,15.90
2022-09-12T21:27:11.860Z,15.70
2022-09-12T21:29:41.872Z,15.40
2022-09-12T21:32:14.238Z,15.40
2022-09-12T21:34:44.569Z,15.30
2022-09-12T21:37:14.728Z,15.20
2022-09-12T21:39:44.837Z,15.20
2022-09-12T21:42:17.454Z,15.20
2022-09-12T21:44:47.498Z,15.10
2022-09-12T21:47:17.713Z,15.00
2022-09-12T21:49:47.826Z,15.00
2022-09-12T21:52:18.203Z,14.80
2022-09-12T21:54:48.198Z,14.80
2022-09-12T21:57:20.759Z,14.90
2022-09-12T21:59:50.819Z,15.00
2022-09-12T22:02:23.078Z,14.90
2022-09-12T22:04:53.125Z,14.80
2022-09-12T22:07:23.191Z,14.80
2022-09-12T22:09:53.741Z,14.60
2022-09-12T22:12:27.514Z,14.50
2022-09-12T22:14:57.873Z,14.60
2022-09-12T22:17:27.866Z,14.60
2022-09-12T22:19:58.230Z,14.60
2022-09-12T22:22:40.865Z,14.60
2022-09-12T22:25:12.838Z,14.50
2022-09-12T22:27:45.452Z,14.40
2022-09-12T22:30:16.201Z,14.40
2022-09-12T22:32:48.214Z,14.40
2022-09-12T22:35:19.192Z,14.40
2022-09-12T22:37:50.270Z,14.40
2022-09-12T22:40:20.446Z,14.50
2022-09-12T22:42:55.079Z,14.40
2022-09-12T22:45:25.262Z,14.30
2022-09-12T22:47:59.164Z,14.10
2022-09-12T22:50:31.122Z,14.10
2022-09-12T22:53:01.118Z,14.00
2022-09-12T22:55:31.178Z,13.90
2022-09-12T22:58:03.792Z,13.80
2022-09-12T23:00:33.981Z,13.80
2022-09-12T23:03:04.310Z,13.80
2022-09-12T23:05:34.332Z,13.90
2022-09-12T23:08:04.922Z,13.90
2022-09-12T23:10:38.389Z,13.90
2022-09-12T23:13:10.964Z,14.00
2022-09-12T23:15:41.262Z,13.90
2022-09-12T23:18:11.369Z,13.90
2022-09-12T23:20:41.354Z,13.80
2022-09-12T23:23:11.306Z,13.70
2022-09-12T23:25:42.081Z,13.60
2022-09-12T23:28:15.058Z,13.70
2022-09-12T23:30:45.084Z,13.70
2022-09-12T23:33:15.048Z,13.70
2022-09-12T23:35:45.091Z,13.60
2022-09-12T23:38:15.076Z,13.50
2022-09-12T23:40:45.253Z,13.50
2022-09-12T23:43:17.769Z,13.80
2022-09-12T23:45:47.792Z,13.90
2022-09-12T23:48:18.705Z,13.90
2022-09-12T23:50:50.633Z,13.90
2022-09-12T23:53:21.447Z,13.90
2022-09-12T23:55:51.785Z,13.90
2022-09-12T23:58:25.110Z,14.00
